createdAt,value
2024-05-09T00:01:58.193Z,100438.50
2024-05-09T00:04:47.729Z,100441.63
2024-05-09T00:07:37.742Z,100441.59
2024-05-09T00:10:35.446Z,100443.47
2024-05-09T00:13:27.420Z,100443.89
2024-05-09T00:16:17.203Z,100442.38
2024-05-09T00:19:07.250Z,100440.88
2024-05-09T00:21:56.754Z,100439.70
2024-05-09T00:24:46.538Z,100451.43
2024-05-09T00:27:36.218Z,100452.73
2024-05-09T00:30:33.421Z,100449.27
2024-05-09T00:33:25.844Z,100448.40
2024-05-09T00:36:15.684Z,100448.65
2024-05-09T00:39:05.163Z,100448.44
2024-05-09T00:41:54.437Z,100445.02
2024-05-09T00:44:44.109Z,100444.08
2024-05-09T00:47:34.386Z,100441.93
2024-05-09T00:50:29.976Z,100438.71
2024-05-09T00:53:26.495Z,100436.64
2024-05-09T00:56:16.464Z,100441.05
2024-05-09T00:59:05.817Z,100441.30
2024-05-09T01:01:55.636Z,100445.16
2024-05-09T01:04:45.037Z,100448.59
2024-05-09T01:07:34.433Z,100445.45
2024-05-09T01:10:28.276Z,100446.77
2024-05-09T01:13:23.422Z,100441.36
2024-05-09T01:16:13.601Z,100445.56
2024-05-09T01:19:03.655Z,100447.85
2024-05-09T01:21:53.268Z,100449.15
2024-05-09T01:24:42.836Z,100454.40
2024-05-09T01:27:32.403Z,100454.66
2024-05-09T01:30:31.171Z,100456.48
2024-05-09T01:33:23.914Z,100451.20
2024-05-09T01:36:13.214Z,100450.96
2024-05-09T01:39:02.753Z,100449.74
2024-05-09T01:41:52.265Z,100454.55
2024-05-09T01:44:43.382Z,100451.27
2024-05-09T01:47:33.049Z,100445.16
2024-05-09T01:50:28.928Z,100450.84
2024-05-09T01:53:27.515Z,100452.61
2024-05-09T01:56:16.631Z,100455.41
2024-05-09T01:59:07.611Z,100454.38
2024-05-09T02:01:58.111Z,100455.05
2024-05-09T02:04:50.571Z,100449.56
2024-05-09T02:07:40.558Z,100449.10
2024-05-09T02:10:32.779Z,100449.81
2024-05-09T02:13:22.572Z,100450.14
2024-05-09T02:16:15.109Z,100449.61
2024-05-09T02:19:04.932Z,100448.40
2024-05-09T02:21:54.468Z,100445.77
2024-05-09T02:24:43.945Z,100445.77
2024-05-09T02:27:33.414Z,100444.92
2024-05-09T02:30:30.896Z,100447.98
2024-05-09T02:33:28.949Z,100444.11
2024-05-09T02:36:18.730Z,100448.17
2024-05-09T02:39:08.401Z,100449.64
2024-05-09T02:41:57.470Z,100449.20
2024-05-09T02:44:46.843Z,100449.64
2024-05-09T02:47:36.062Z,100450.48
2024-05-09T02:50:33.707Z,100450.60
2024-05-09T02:53:29.125Z,100458.41
2024-05-09T02:56:18.669Z,100458.83
2024-05-09T02:59:08.158Z,100460.92
2024-05-09T03:01:57.806Z,100461.84
2024-05-09T03:04:47.755Z,100459.11
2024-05-09T03:07:37.053Z,100460.37
2024-05-09T03:10:29.104Z,100460.27
2024-05-09T03:13:24.055Z,100461.88
2024-05-09T03:16:13.564Z,100464.89
2024-05-09T03:19:03.754Z,100464.26
2024-05-09T03:21:53.217Z,100464.14
2024-05-09T03:24:42.692Z,100465.21
2024-05-09T03:27:32.887Z,100465.20
2024-05-09T03:30:35.781Z,100467.93
2024-05-09T03:33:31.336Z,100468.16
2024-05-09T03:36:21.310Z,100470.80
2024-05-09T03:39:11.276Z,100467.89
2024-05-09T03:42:00.837Z,100469.98
2024-05-09T03:44:51.278Z,100463.92
2024-05-09T03:47:41.007Z,100466.16
2024-05-09T03:50:35.492Z,100468.88
2024-05-09T03:53:26.977Z,100469.11
2024-05-09T03:56:16.746Z,100467.39
2024-05-09T03:59:06.434Z,100468.67
2024-05-09T04:01:55.986Z,100470.52
2024-05-09T04:04:45.403Z,100475.15
2024-05-09T04:07:37.557Z,100471.67
2024-05-09T04:10:33.642Z,100473.10
2024-05-09T04:13:24.485Z,100474.54
2024-05-09T04:16:14.259Z,100478.11
2024-05-09T04:19:03.926Z,100478.70
2024-05-09T04:21:53.413Z,100482.55
2024-05-09T04:24:43.094Z,100483.44
2024-05-09T04:27:32.667Z,100489.79
2024-05-09T04:30:33.670Z,100494.31
2024-05-09T04:33:28.368Z,100497.64
2024-05-09T04:36:17.983Z,100500.91
2024-05-09T04:39:07.563Z,100504.09
2024-05-09T04:41:56.816Z,100503.55
2024-05-09T04:44:46.705Z,100503.11
2024-05-09T04:47:36.356Z,100505.36
2024-05-09T04:50:35.370Z,100503.35
2024-05-09T04:53:28.108Z,100507.00
2024-05-09T04:56:18.262Z,100511.42
2024-05-09T04:59:07.793Z,100517.30
2024-05-09T05:01:57.235Z,100520.31
2024-05-09T05:04:47.128Z,100518.92
2024-05-09T05:07:36.712Z,100516.19
2024-05-09T05:10:33.771Z,100518.16
2024-05-09T05:13:32.667Z,100530.83
2024-05-09T05:16:22.345Z,100525.42
2024-05-09T05:19:14.270Z,100524.70
2024-05-09T05:22:05.384Z,100528.93
2024-05-09T05:24:55.463Z,100528.00
2024-05-09T05:27:45.442Z,100528.30
2024-05-09T05:30:38.254Z,100529.84
2024-05-09T05:33:28.475Z,100531.98
2024-05-09T05:36:18.280Z,100527.55
2024-05-09T05:39:07.650Z,100523.57
2024-05-09T05:41:57.218Z,100523.54
2024-05-09T05:44:46.698Z,100521.45
2024-05-09T05:47:37.737Z,100522.01
2024-05-09T05:50:35.415Z,100523.27
2024-05-09T05:53:27.584Z,100521.63
2024-05-09T05:56:17.598Z,100521.47
2024-05-09T05:59:06.981Z,100521.59
2024-05-09T06:01:56.353Z,100521.65
2024-05-09T06:04:45.673Z,100517.30
2024-05-09T06:07:35.586Z,100514.19
2024-05-09T06:10:30.220Z,100511.60
2024-05-09T06:13:27.621Z,100511.73
2024-05-09T06:16:17.098Z,100512.07
2024-05-09T06:19:06.975Z,100510.84
2024-05-09T06:21:56.958Z,100509.27
2024-05-09T06:24:46.741Z,100515.05
2024-05-09T06:27:37.149Z,100517.27
2024-05-09T06:30:35.180Z,100516.98
2024-05-09T06:33:30.203Z,100516.71
2024-05-09T06:36:20.001Z,100519.02
2024-05-09T06:39:10.278Z,100518.97
2024-05-09T06:42:00.486Z,100514.64
2024-05-09T06:44:50.158Z,100513.00
2024-05-09T06:47:41.998Z,100515.23
2024-05-09T06:50:37.453Z,100518.77
2024-05-09T06:53:28.682Z,100520.38
2024-05-09T06:56:18.532Z,100517.70
2024-05-09T06:59:08.317Z,100518.35
2024-05-09T07:01:58.121Z,100520.20
2024-05-09T07:04:48.657Z,100517.25
2024-05-09T07:07:38.865Z,100515.46
2024-05-09T07:10:34.120Z,100514.23
2024-05-09T07:13:25.586Z,100512.16
2024-05-09T07:16:15.349Z,100514.83
2024-05-09T07:19:05.244Z,100515.70
2024-05-09T07:21:55.406Z,100512.77
2024-05-09T07:24:44.683Z,100511.19
2024-05-09T07:27:34.460Z,100508.73
2024-05-09T07:30:33.039Z,100511.54
2024-05-09T07:33:24.708Z,100510.36
2024-05-09T07:36:15.512Z,100505.50
2024-05-09T07:39:05.993Z,100504.09
2024-05-09T07:41:55.565Z,100507.72
2024-05-09T07:44:45.430Z,100508.01
2024-05-09T07:48:57.859Z,100505.05
2024-05-09T07:53:43.003Z,100496.92
2024-05-09T07:56:36.297Z,100499.37
2024-05-09T07:59:25.860Z,100497.30
2024-05-09T08:02:15.384Z,100496.38
2024-05-09T08:05:05.240Z,100497.20
2024-05-09T08:07:55.979Z,100495.60
2024-05-09T08:10:45.745Z,100497.35
2024-05-09T08:13:35.511Z,100498.14
2024-05-09T08:16:25.028Z,100499.52
2024-05-09T08:19:14.938Z,100500.34
2024-05-09T08:22:08.332Z,100498.74
2024-05-09T08:24:58.451Z,100502.79
2024-05-09T08:27:47.912Z,100497.16
2024-05-09T08:30:38.542Z,100502.81
2024-05-09T08:33:28.593Z,100500.00
2024-05-09T08:36:20.385Z,100491.34
2024-05-09T08:39:09.955Z,100491.40
2024-05-09T08:42:00.150Z,100497.06
2024-05-09T08:44:49.547Z,100490.38
2024-05-09T08:47:39.020Z,100487.63
2024-05-09T08:50:36.065Z,100488.58
2024-05-09T08:53:29.726Z,100484.59
2024-05-09T08:56:19.262Z,100485.94
2024-05-09T08:59:09.974Z,100487.86
2024-05-09T09:01:59.395Z,100487.64
2024-05-09T09:05:00.608Z,100489.27
2024-05-09T09:07:51.657Z,100487.80
2024-05-09T09:10:41.728Z,100490.90
2024-05-09T09:13:31.666Z,100492.69
2024-05-09T09:16:32.421Z,100489.89
2024-05-09T09:19:23.212Z,100491.18
2024-05-09T09:22:14.182Z,100491.57
2024-05-09T09:25:03.979Z,100494.40
2024-05-09T09:27:53.904Z,100491.09
2024-05-09T09:30:44.394Z,100487.34
2024-05-09T09:33:36.072Z,100484.91
2024-05-09T09:36:27.817Z,100487.45
2024-05-09T09:39:17.208Z,100486.41
2024-05-09T09:42:06.623Z,100483.22
2024-05-09T09:45:04.318Z,100481.84
2024-05-09T09:47:58.474Z,100481.90
2024-05-09T09:50:48.819Z,100485.61
2024-05-09T09:53:38.747Z,100483.89
2024-05-09T09:56:30.362Z,100473.80
2024-05-09T09:59:20.192Z,100471.18
2024-05-09T10:02:09.790Z,100468.24
2024-05-09T10:05:00.239Z,100466.27
2024-05-09T10:07:50.088Z,100465.42
2024-05-09T10:10:40.481Z,100465.58
2024-05-09T10:13:34.411Z,100467.52
2024-05-09T10:16:24.234Z,100470.29
2024-05-09T10:19:26.465Z,100453.61
2024-05-09T10:22:26.711Z,100458.27
2024-05-09T10:25:16.236Z,100459.27
2024-05-09T10:28:06.004Z,100456.38
2024-05-09T10:31:15.596Z,100457.72
2024-05-09T10:34:05.540Z,100461.14
2024-05-09T10:36:55.679Z,100458.18
2024-05-09T10:39:44.949Z,100448.77
2024-05-09T10:42:36.270Z,100441.19
2024-05-09T10:45:25.717Z,100440.27
2024-05-09T10:48:15.475Z,100433.50
2024-05-09T10:51:05.318Z,100441.01
2024-05-09T10:53:56.794Z,100437.85
2024-05-09T10:56:46.473Z,100434.90
2024-05-09T10:59:37.079Z,100435.16
2024-05-09T11:02:26.219Z,100424.25
2024-05-09T11:05:16.119Z,100421.59
2024-05-09T11:08:06.232Z,100418.84
2024-05-09T11:10:56.079Z,100422.64
2024-05-09T11:13:46.181Z,100419.41
2024-05-09T11:16:36.061Z,100417.02
2024-05-09T11:19:29.198Z,100417.04
2024-05-09T11:22:18.938Z,100419.41
2024-05-09T11:25:09.392Z,100420.23
2024-05-09T11:27:59.495Z,100421.90
2024-05-09T11:30:49.403Z,100415.39
2024-05-09T11:33:39.760Z,100408.91
2024-05-09T11:36:28.989Z,100405.80
2024-05-09T11:39:18.743Z,100403.64
2024-05-09T11:42:08.074Z,100396.41
2024-05-09T11:44:57.643Z,100401.48
2024-05-09T11:47:48.252Z,100401.55
2024-05-09T11:50:38.008Z,100395.64
2024-05-09T11:53:27.393Z,100398.64
2024-05-09T11:56:17.640Z,100390.95
2024-05-09T11:59:06.892Z,100393.64
2024-05-09T12:01:56.279Z,100391.40
2024-05-09T12:04:47.074Z,100383.77
2024-05-09T12:07:36.501Z,100390.61
2024-05-09T12:10:32.311Z,100389.20
2024-05-09T12:13:25.855Z,100387.31
2024-05-09T12:16:16.182Z,100378.80
2024-05-09T12:19:06.303Z,100378.59
2024-05-09T12:21:56.112Z,100376.69
2024-05-09T12:24:45.962Z,100370.63
2024-05-09T12:27:37.485Z,100371.29
2024-05-09T12:30:35.887Z,100368.30
2024-05-09T12:33:30.024Z,100366.98
2024-05-09T12:36:19.795Z,100362.75
2024-05-09T12:39:09.677Z,100362.55
2024-05-09T12:41:59.265Z,100362.31
2024-05-09T12:44:49.047Z,100359.70
2024-05-09T12:47:38.689Z,100361.97
2024-05-09T12:50:32.868Z,100353.10
2024-05-09T12:53:24.411Z,100341.17
2024-05-09T12:56:14.205Z,100337.20
2024-05-09T12:59:04.066Z,100334.92
2024-05-09T13:01:53.415Z,100332.95
2024-05-09T13:04:43.410Z,100326.27
2024-05-09T13:07:33.727Z,100329.68
2024-05-09T13:10:31.139Z,100329.18
2024-05-09T13:13:22.248Z,100331.93
2024-05-09T13:16:12.284Z,100328.04
2024-05-09T13:19:01.776Z,100325.97
2024-05-09T13:21:51.651Z,100316.30
2024-05-09T13:24:41.412Z,100320.09
2024-05-09T13:27:31.340Z,100316.61
2024-05-09T13:30:29.254Z,100312.04
2024-05-09T13:33:28.192Z,100306.84
2024-05-09T13:36:17.630Z,100302.87
2024-05-09T13:39:07.508Z,100307.41
2024-05-09T13:41:56.978Z,100304.01
2024-05-09T13:44:46.772Z,100304.88
2024-05-09T13:47:37.764Z,100307.73
2024-05-09T13:50:33.633Z,100306.78
2024-05-09T13:53:26.387Z,100303.38
2024-05-09T13:56:16.228Z,100300.27
2024-05-09T13:59:05.391Z,100301.10
2024-05-09T14:01:55.031Z,100302.45
2024-05-09T14:04:44.888Z,100293.12
2024-05-09T14:07:34.973Z,100293.62
2024-05-09T14:10:28.976Z,100294.86
2024-05-09T14:13:21.182Z,100293.39
2024-05-09T14:16:10.306Z,100294.64
2024-05-09T14:19:00.926Z,100286.59
2024-05-09T14:21:50.823Z,100287.90
2024-05-09T14:24:40.464Z,100286.69
2024-05-09T14:27:32.574Z,100284.19
2024-05-09T14:30:30.665Z,100282.52
2024-05-09T14:33:28.016Z,100284.26
2024-05-09T14:36:17.634Z,100285.50
2024-05-09T14:39:07.200Z,100285.08
2024-05-09T14:41:57.292Z,100283.48
2024-05-09T14:44:47.069Z,100282.14
2024-05-09T14:47:37.047Z,100276.23
2024-05-09T14:50:34.756Z,100271.49
2024-05-09T14:53:28.501Z,100272.16
2024-05-09T14:56:17.654Z,100270.21
2024-05-09T14:59:08.869Z,100269.55
2024-05-09T15:01:59.040Z,100269.31
2024-05-09T15:04:49.057Z,100261.83
2024-05-09T15:07:39.339Z,100259.42
2024-05-09T15:10:34.869Z,100258.20
2024-05-09T15:13:26.934Z,100257.21
2024-05-09T15:16:16.983Z,100255.27
2024-05-09T15:19:06.652Z,100253.02
2024-05-09T15:21:56.742Z,100249.58
2024-05-09T15:24:47.933Z,100248.14
2024-05-09T15:27:37.636Z,100249.62
2024-05-09T15:30:31.419Z,100246.86
2024-05-09T15:33:23.498Z,100238.45
2024-05-09T15:36:13.551Z,100241.80
2024-05-09T15:39:03.100Z,100240.15
2024-05-09T15:41:53.287Z,100233.48
2024-05-09T15:44:45.424Z,100231.35
2024-05-09T15:47:35.297Z,100233.60
2024-05-09T15:50:35.394Z,100227.63
2024-05-09T15:53:29.820Z,100226.77
2024-05-09T15:56:19.179Z,100230.41
2024-05-09T15:59:08.850Z,100223.11
2024-05-09T16:01:58.650Z,100221.16
2024-05-09T16:04:48.740Z,100219.94
2024-05-09T16:07:38.305Z,100224.53
2024-05-09T16:10:32.699Z,100226.45
2024-05-09T16:13:24.706Z,100222.88
2024-05-09T16:16:14.857Z,100218.31
2024-05-09T16:19:04.848Z,100218.82
2024-05-09T16:21:54.711Z,100218.17
2024-05-09T16:24:44.404Z,100217.65
2024-05-09T16:27:34.368Z,100213.27
2024-05-09T16:30:31.549Z,100211.61
2024-05-09T16:33:26.344Z,100210.88
2024-05-09T16:36:16.167Z,100210.91
2024-05-09T16:39:06.159Z,100216.48
2024-05-09T16:41:57.365Z,100212.52
2024-05-09T16:44:46.861Z,100213.17
2024-05-09T16:47:36.854Z,100212.15
2024-05-09T16:50:31.562Z,100212.86
2024-05-09T16:53:25.904Z,100212.46
2024-05-09T16:56:16.111Z,100214.86
2024-05-09T16:59:06.082Z,100213.59
2024-05-09T17:01:55.635Z,100209.79
2024-05-09T17:04:45.945Z,100209.72
2024-05-09T17:07:36.126Z,100211.67
2024-05-09T17:10:31.785Z,100213.98
2024-05-09T17:13:23.858Z,100216.27
2024-05-09T17:16:15.757Z,100215.96
2024-05-09T17:19:05.335Z,100212.80
2024-05-09T17:21:54.764Z,100216.35
2024-05-09T17:24:44.470Z,100213.70
2024-05-09T17:27:34.148Z,100209.56
2024-05-09T17:30:32.192Z,100212.48
2024-05-09T17:33:26.769Z,100209.86
2024-05-09T17:36:16.655Z,100208.16
2024-05-09T17:39:07.069Z,100204.84
2024-05-09T17:41:56.638Z,100207.86
2024-05-09T17:44:46.520Z,100207.83
2024-05-09T17:47:36.834Z,100205.52
2024-05-09T17:50:34.062Z,100206.80
2024-05-09T17:53:26.320Z,100210.95
2024-05-09T17:56:16.294Z,100207.63
2024-05-09T17:59:07.829Z,100209.86
2024-05-09T18:01:59.198Z,100215.47
2024-05-09T18:04:49.364Z,100213.50
2024-05-09T18:07:39.503Z,100220.41
2024-05-09T18:10:35.632Z,100224.56
2024-05-09T18:13:29.166Z,100223.83
2024-05-09T18:16:19.767Z,100220.38
2024-05-09T18:19:09.940Z,100223.11
2024-05-09T18:21:59.417Z,100229.77
2024-05-09T18:24:50.606Z,100231.38
2024-05-09T18:27:40.670Z,100235.47
2024-05-09T18:30:34.959Z,100233.45
2024-05-09T18:33:27.489Z,100235.19
2024-05-09T18:36:17.167Z,100239.27
2024-05-09T18:39:07.766Z,100246.41
2024-05-09T18:42:00.114Z,100249.52
2024-05-09T18:44:49.896Z,100254.38
2024-05-09T18:47:40.148Z,100254.65
2024-05-09T18:50:35.655Z,100254.34
2024-05-09T18:53:29.259Z,100257.77
2024-05-09T18:56:18.753Z,100260.08
2024-05-09T18:59:09.665Z,100267.83
2024-05-09T19:02:00.078Z,100273.95
2024-05-09T19:04:51.362Z,100277.52
2024-05-09T19:07:41.952Z,100275.52
2024-05-09T19:10:34.766Z,100278.02
2024-05-09T19:13:25.740Z,100281.79
2024-05-09T19:16:15.864Z,100285.66
2024-05-09T19:19:06.456Z,100286.31
2024-05-09T19:21:59.359Z,100288.16
2024-05-09T19:24:49.353Z,100288.64
2024-05-09T19:27:39.554Z,100284.97
2024-05-09T19:30:37.747Z,100283.52
2024-05-09T19:33:32.518Z,100290.02
2024-05-09T19:36:22.287Z,100299.30
2024-05-09T19:39:13.193Z,100297.23
2024-05-09T19:42:03.279Z,100296.77
2024-05-09T19:44:53.429Z,100297.95
2024-05-09T19:47:43.736Z,100301.60
2024-05-09T19:50:40.996Z,100304.84
2024-05-09T19:53:34.698Z,100302.95
2024-05-09T19:56:24.977Z,100305.39
2024-05-09T19:59:15.576Z,100304.11
2024-05-09T20:02:05.545Z,100301.09
2024-05-09T20:04:55.554Z,100298.77
2024-05-09T20:07:46.027Z,100301.32
2024-05-09T20:10:36.896Z,100299.18
2024-05-09T20:13:28.065Z,100300.94
2024-05-09T20:16:18.403Z,100297.11
2024-05-09T20:19:08.353Z,100297.59
2024-05-09T20:21:58.533Z,100299.99
2024-05-09T20:24:48.352Z,100296.64
2024-05-09T20:27:38.555Z,100297.02
2024-05-09T20:30:32.437Z,100296.80
2024-05-09T20:33:24.229Z,100295.09
2024-05-09T20:36:14.371Z,100294.63
2024-05-09T20:39:04.858Z,100299.67
2024-05-09T20:41:54.643Z,100298.77
2024-05-09T20:44:44.332Z,100295.38
2024-05-09T20:47:34.383Z,100297.61
2024-05-09T20:50:35.357Z,100297.17
2024-05-09T20:53:30.764Z,100297.70
2024-05-09T20:56:23.342Z,100295.16
2024-05-09T20:59:13.397Z,100297.52
2024-05-09T21:02:03.633Z,100298.64
2024-05-09T21:04:53.477Z,100299.41
2024-05-09T21:07:43.653Z,100295.89
2024-05-09T21:10:34.669Z,100300.12
2024-05-09T21:13:24.783Z,100298.02
2024-05-09T21:16:14.958Z,100298.51
2024-05-09T21:19:04.803Z,100297.20
2024-05-09T21:21:54.727Z,100296.64
2024-05-09T21:24:44.628Z,100297.02
2024-05-09T21:27:34.978Z,100297.36
2024-05-09T21:30:36.907Z,100295.94
2024-05-09T21:33:30.888Z,100294.60
2024-05-09T21:36:20.702Z,100294.73
2024-05-09T21:39:10.700Z,100296.20
2024-05-09T21:42:02.005Z,100296.13
2024-05-09T21:44:51.887Z,100296.30
2024-05-09T21:50:39.202Z,100294.91
2024-05-09T21:53:31.886Z,100295.65
2024-05-09T21:56:21.548Z,100300.66
2024-05-09T21:59:11.133Z,100300.52
2024-05-09T22:02:00.726Z,100304.46
2024-05-09T22:04:51.135Z,100301.89
2024-05-09T22:07:41.380Z,100301.86
2024-05-09T22:10:34.590Z,100302.84
2024-05-09T22:13:26.496Z,100305.39
2024-05-09T22:16:16.057Z,100300.05
2024-05-09T22:19:06.212Z,100297.41
2024-05-09T22:21:56.902Z,100295.03
2024-05-09T22:24:46.529Z,100289.48
2024-05-09T22:27:37.246Z,100291.86
2024-05-09T22:30:35.104Z,100290.02
2024-05-09T22:33:28.398Z,100294.48
2024-05-09T22:36:17.916Z,100295.88
2024-05-09T22:39:07.796Z,100298.16
2024-05-09T22:41:57.181Z,100294.63
2024-05-09T22:44:46.958Z,100294.61
2024-05-09T22:47:37.264Z,100298.70
2024-05-09T22:50:32.508Z,100293.95
2024-05-09T22:53:25.264Z,100295.11
2024-05-09T22:56:15.604Z,100292.64
2024-05-09T22:59:06.761Z,100291.59
2024-05-09T23:01:56.255Z,100292.13
2024-05-09T23:04:46.401Z,100294.04
2024-05-09T23:07:36.267Z,100293.75
2024-05-09T23:10:32.236Z,100293.88
2024-05-09T23:13:26.991Z,100290.27
2024-05-09T23:16:16.595Z,100294.32
2024-05-09T23:19:05.947Z,100295.86
2024-05-09T23:21:55.319Z,100293.65
2024-05-09T23:24:45.278Z,100293.27
2024-05-09T23:27:34.792Z,100290.00
2024-05-09T23:30:33.618Z,100289.42
2024-05-09T23:33:28.026Z,100285.87
2024-05-09T23:36:17.885Z,100287.92
2024-05-09T23:39:07.769Z,100284.62
2024-05-09T23:41:57.790Z,100287.08
2024-05-09T23:44:47.642Z,100284.77
2024-05-09T23:47:36.878Z,100285.11
2024-05-09T23:50:33.699Z,100283.89
2024-05-09T23:53:26.608Z,100282.58
2024-05-09T23:56:16.479Z,100284.35
2024-05-09T23:59:06.165Z,100280.88
